sensor_id;sensor_type;location;lat;lon;timestamp;P1;durP1;ratioP1;P2;durP2;ratioP2
68365;SDS011;55283;51.466;5.478;2023-05-10T00:02:22;1.30;;;1.20;;
68365;SDS011;55283;51.466;5.478;2023-05-10T00:04:47;1.40;;;1.30;;
68365;SDS011;55283;51.466;5.478;2023-05-10T00:07:13;1.13;;;1.02;;
68365;SDS011;55283;51.466;5.478;2023-05-10T00:09:38;1.60;;;1.30;;
68365;SDS011;55283;51.466;5.478;2023-05-10T00:12:04;1.40;;;1.20;;
68365;SDS011;55283;51.466;5.478;2023-05-10T00:14:29;1.20;;;1.10;;
68365;SDS011;55283;51.466;5.478;2023-05-10T00:16:55;1.30;;;1.20;;
68365;SDS011;55283;51.466;5.478;2023-05-10T00:19:20;2.57;;;1.17;;
68365;SDS011;55283;51.466;5.478;2023-05-10T00:21:46;1.43;;;1.33;;
68365;SDS011;55283;51.466;5.478;2023-05-10T00:24:11;1.30;;;1.20;;
68365;SDS011;55283;51.466;5.478;2023-05-10T00:26:36;1.30;;;1.20;;
68365;SDS011;55283;51.466;5.478;2023-05-10T00:29:02;1.10;;;1.00;;
68365;SDS011;55283;51.466;5.478;2023-05-10T00:31:27;1.13;;;1.03;;
68365;SDS011;55283;51.466;5.478;2023-05-10T00:33:53;1.17;;;1.10;;
68365;SDS011;55283;51.466;5.478;2023-05-10T00:36:18;1.40;;;1.10;;
68365;SDS011;55283;51.466;5.478;2023-05-10T00:38:43;1.10;;;1.00;;
68365;SDS011;55283;51.466;5.478;2023-05-10T00:41:09;1.00;;;1.00;;
68365;SDS011;55283;51.466;5.478;2023-05-10T00:43:34;1.20;;;1.10;;
68365;SDS011;55283;51.466;5.478;2023-05-10T00:46:00;1.20;;;1.10;;
68365;SDS011;55283;51.466;5.478;2023-05-10T00:48:26;1.00;;;1.00;;
68365;SDS011;55283;51.466;5.478;2023-05-10T00:50:51;1.20;;;1.10;;
68365;SDS011;55283;51.466;5.478;2023-05-10T00:53:17;1.30;;;1.20;;
68365;SDS011;55283;51.466;5.478;2023-05-10T00:55:43;1.10;;;1.10;;
68365;SDS011;55283;51.466;5.478;2023-05-10T00:58:08;1.27;;;1.13;;
68365;SDS011;55283;51.466;5.478;2023-05-10T01:00:34;1.30;;;1.20;;
68365;SDS011;55283;51.466;5.478;2023-05-10T01:03:02;1.30;;;1.20;;
68365;SDS011;55283;51.466;5.478;2023-05-10T01:05:27;1.33;;;1.23;;
68365;SDS011;55283;51.466;5.478;2023-05-10T01:07:53;1.20;;;1.10;;
68365;SDS011;55283;51.466;5.478;2023-05-10T01:10:18;1.30;;;1.20;;
68365;SDS011;55283;51.466;5.478;2023-05-10T01:12:45;1.30;;;1.20;;
68365;SDS011;55283;51.466;5.478;2023-05-10T01:15:12;1.35;;;1.25;;
68365;SDS011;55283;51.466;5.478;2023-05-10T01:17:39;1.40;;;1.30;;
68365;SDS011;55283;51.466;5.478;2023-05-10T01:20:07;1.53;;;1.30;;
68365;SDS011;55283;51.466;5.478;2023-05-10T01:33:33;1.40;;;1.30;;
68365;SDS011;55283;51.466;5.478;2023-05-10T01:36:03;1.30;;;1.20;;
68365;SDS011;55283;51.466;5.478;2023-05-10T01:38:46;1.45;;;1.35;;
68365;SDS011;55283;51.466;5.478;2023-05-10T01:41:28;1.30;;;1.20;;
68365;SDS011;55283;51.466;5.478;2023-05-10T01:44:04;1.60;;;1.30;;
68365;SDS011;55283;51.466;5.478;2023-05-10T01:46:40;1.50;;;1.40;;
68365;SDS011;55283;51.466;5.478;2023-05-10T01:49:10;1.30;;;1.20;;
68365;SDS011;55283;51.466;5.478;2023-05-10T01:51:44;1.38;;;1.27;;
68365;SDS011;55283;51.466;5.478;2023-05-10T01:54:14;1.60;;;1.40;;
68365;SDS011;55283;51.466;5.478;2023-05-10T01:56:44;1.77;;;1.30;;
68365;SDS011;55283;51.466;5.478;2023-05-10T01:59:15;1.60;;;1.50;;
68365;SDS011;55283;51.466;5.478;2023-05-10T02:01:43;1.50;;;1.40;;
68365;SDS011;55283;51.466;5.478;2023-05-10T02:04:10;1.50;;;1.40;;
68365;SDS011;55283;51.466;5.478;2023-05-10T02:06:39;1.80;;;1.40;;
68365;SDS011;55283;51.466;5.478;2023-05-10T02:09:07;1.60;;;1.50;;
68365;SDS011;55283;51.466;5.478;2023-05-10T02:11:37;1.52;;;1.40;;
68365;SDS011;55283;51.466;5.478;2023-05-10T02:14:03;1.60;;;1.50;;
68365;SDS011;55283;51.466;5.478;2023-05-10T02:16:32;1.92;;;1.40;;
68365;SDS011;55283;51.466;5.478;2023-05-10T02:19:00;1.60;;;1.50;;
68365;SDS011;55283;51.466;5.478;2023-05-10T02:21:27;1.37;;;1.27;;
68365;SDS011;55283;51.466;5.478;2023-05-10T02:23:54;1.65;;;1.35;;
68365;SDS011;55283;51.466;5.478;2023-05-10T02:26:22;1.42;;;1.33;;
68365;SDS011;55283;51.466;5.478;2023-05-10T02:28:49;1.53;;;1.30;;
68365;SDS011;55283;51.466;5.478;2023-05-10T02:31:16;1.65;;;1.55;;
68365;SDS011;55283;51.466;5.478;2023-05-10T02:33:43;1.60;;;1.50;;
68365;SDS011;55283;51.466;5.478;2023-05-10T02:36:11;1.88;;;1.50;;
68365;SDS011;55283;51.466;5.478;2023-05-10T02:38:38;1.70;;;1.60;;
68365;SDS011;55283;51.466;5.478;2023-05-10T02:41:04;1.60;;;1.50;;
68365;SDS011;55283;51.466;5.478;2023-05-10T02:43:33;1.63;;;1.52;;
68365;SDS011;55283;51.466;5.478;2023-05-10T02:46:00;2.00;;;1.50;;
68365;SDS011;55283;51.466;5.478;2023-05-10T02:48:26;1.70;;;1.60;;
68365;SDS011;55283;51.466;5.478;2023-05-10T02:50:52;1.53;;;1.33;;
68365;SDS011;55283;51.466;5.478;2023-05-10T02:53:22;2.10;;;1.90;;
68365;SDS011;55283;51.466;5.478;2023-05-10T02:55:55;1.70;;;1.60;;
68365;SDS011;55283;51.466;5.478;2023-05-10T02:58:25;1.70;;;1.60;;
68365;SDS011;55283;51.466;5.478;2023-05-10T03:00:51;3.25;;;1.70;;
68365;SDS011;55283;51.466;5.478;2023-05-10T03:03:17;1.85;;;1.65;;
68365;SDS011;55283;51.466;5.478;2023-05-10T03:05:43;1.80;;;1.70;;
68365;SDS011;55283;51.466;5.478;2023-05-10T03:08:08;1.83;;;1.70;;
68365;SDS011;55283;51.466;5.478;2023-05-10T03:10:47;1.70;;;1.60;;
68365;SDS011;55283;51.466;5.478;2023-05-10T03:18:44;2.47;;;1.93;;
68365;SDS011;55283;51.466;5.478;2023-05-10T03:21:16;2.25;;;1.80;;
68365;SDS011;55283;51.466;5.478;2023-05-10T03:26:13;1.90;;;1.70;;
68365;SDS011;55283;51.466;5.478;2023-05-10T03:28:43;1.90;;;1.80;;
68365;SDS011;55283;51.466;5.478;2023-05-10T03:31:09;1.90;;;1.80;;
68365;SDS011;55283;51.466;5.478;2023-05-10T03:33:39;1.70;;;1.60;;
68365;SDS011;55283;51.466;5.478;2023-05-10T03:36:11;2.00;;;1.80;;
68365;SDS011;55283;51.466;5.478;2023-05-10T03:38:36;1.90;;;1.80;;
68365;SDS011;55283;51.466;5.478;2023-05-10T03:41:02;2.00;;;1.70;;
68365;SDS011;55283;51.466;5.478;2023-05-10T03:43:27;2.03;;;1.50;;
68365;SDS011;55283;51.466;5.478;2023-05-10T03:45:52;2.00;;;1.80;;
68365;SDS011;55283;51.466;5.478;2023-05-10T03:48:18;1.95;;;1.67;;
68365;SDS011;55283;51.466;5.478;2023-05-10T03:50:44;2.97;;;1.80;;
68365;SDS011;55283;51.466;5.478;2023-05-10T03:53:09;1.90;;;1.80;;
68365;SDS011;55283;51.466;5.478;2023-05-10T03:55:35;2.37;;;1.80;;
68365;SDS011;55283;51.466;5.478;2023-05-10T03:58:01;1.58;;;1.48;;
68365;SDS011;55283;51.466;5.478;2023-05-10T04:00:26;2.20;;;1.70;;
68365;SDS011;55283;51.466;5.478;2023-05-10T04:02:52;1.83;;;1.70;;
68365;SDS011;55283;51.466;5.478;2023-05-10T04:05:17;2.07;;;1.70;;
68365;SDS011;55283;51.466;5.478;2023-05-10T04:07:43;2.03;;;1.83;;
68365;SDS011;55283;51.466;5.478;2023-05-10T04:10:09;2.33;;;1.77;;
68365;SDS011;55283;51.466;5.478;2023-05-10T04:12:35;2.00;;;1.80;;
68365;SDS011;55283;51.466;5.478;2023-05-10T04:15:00;2.00;;;1.67;;
68365;SDS011;55283;51.466;5.478;2023-05-10T04:17:26;2.50;;;1.70;;
68365;SDS011;55283;51.466;5.478;2023-05-10T04:19:51;1.97;;;1.77;;
68365;SDS011;55283;51.466;5.478;2023-05-10T04:22:19;1.90;;;1.80;;
68365;SDS011;55283;51.466;5.478;2023-05-10T04:24:45;2.30;;;1.90;;
68365;SDS011;55283;51.466;5.478;2023-05-10T04:27:10;2.07;;;1.80;;
68365;SDS011;55283;51.466;5.478;2023-05-10T04:29:36;2.75;;;1.95;;
68365;SDS011;55283;51.466;5.478;2023-05-10T04:32:02;2.10;;;1.90;;
68365;SDS011;55283;51.466;5.478;2023-05-10T04:34:28;2.22;;;2.10;;
68365;SDS011;55283;51.466;5.478;2023-05-10T04:36:54;2.25;;;2.05;;
68365;SDS011;55283;51.466;5.478;2023-05-10T04:39:19;2.20;;;2.00;;
68365;SDS011;55283;51.466;5.478;2023-05-10T04:41:45;2.43;;;2.10;;
68365;SDS011;55283;51.466;5.478;2023-05-10T04:44:10;2.83;;;2.03;;
68365;SDS011;55283;51.466;5.478;2023-05-10T04:46:36;2.43;;;1.90;;
68365;SDS011;55283;51.466;5.478;2023-05-10T04:49:01;2.73;;;1.97;;
68365;SDS011;55283;51.466;5.478;2023-05-10T04:51:26;2.20;;;2.00;;
68365;SDS011;55283;51.466;5.478;2023-05-10T04:53:52;2.37;;;2.13;;
68365;SDS011;55283;51.466;5.478;2023-05-10T04:56:17;2.53;;;2.20;;
68365;SDS011;55283;51.466;5.478;2023-05-10T04:58:43;2.20;;;1.97;;
68365;SDS011;55283;51.466;5.478;2023-05-10T05:01:09;2.40;;;2.20;;
68365;SDS011;55283;51.466;5.478;2023-05-10T05:03:35;2.20;;;2.00;;
68365;SDS011;55283;51.466;5.478;2023-05-10T05:06:01;2.30;;;2.10;;
68365;SDS011;55283;51.466;5.478;2023-05-10T05:08:27;2.57;;;2.20;;
68365;SDS011;55283;51.466;5.478;2023-05-10T05:10:52;2.47;;;2.20;;
68365;SDS011;55283;51.466;5.478;2023-05-10T05:13:18;2.40;;;2.20;;
68365;SDS011;55283;51.466;5.478;2023-05-10T05:15:43;3.17;;;2.23;;
68365;SDS011;55283;51.466;5.478;2023-05-10T05:18:09;2.10;;;1.90;;
68365;SDS011;55283;51.466;5.478;2023-05-10T05:20:35;2.80;;;2.50;;
68365;SDS011;55283;51.466;5.478;2023-05-10T05:23:00;3.17;;;2.30;;
68365;SDS011;55283;51.466;5.478;2023-05-10T05:25:26;2.50;;;2.30;;
68365;SDS011;55283;51.466;5.478;2023-05-10T05:27:51;2.70;;;2.30;;
68365;SDS011;55283;51.466;5.478;2023-05-10T05:30:17;2.50;;;2.23;;
68365;SDS011;55283;51.466;5.478;2023-05-10T05:32:42;2.07;;;1.83;;
68365;SDS011;55283;51.466;5.478;2023-05-10T05:35:08;4.40;;;2.50;;
68365;SDS011;55283;51.466;5.478;2023-05-10T05:37:33;2.83;;;2.38;;
68365;SDS011;55283;51.466;5.478;2023-05-10T05:39:59;4.03;;;2.70;;
68365;SDS011;55283;51.466;5.478;2023-05-10T05:42:26;4.13;;;2.50;;
68365;SDS011;55283;51.466;5.478;2023-05-10T05:44:52;3.75;;;2.40;;
68365;SDS011;55283;51.466;5.478;2023-05-10T05:47:17;3.00;;;2.20;;
68365;SDS011;55283;51.466;5.478;2023-05-10T05:49:43;2.50;;;2.30;;
68365;SDS011;55283;51.466;5.478;2023-05-10T05:52:10;2.75;;;2.33;;
68365;SDS011;55283;51.466;5.478;2023-05-10T05:54:36;2.43;;;2.23;;
68365;SDS011;55283;51.466;5.478;2023-05-10T05:57:01;3.10;;;2.22;;
68365;SDS011;55283;51.466;5.478;2023-05-10T05:59:27;2.97;;;2.13;;
68365;SDS011;55283;51.466;5.478;2023-05-10T06:01:52;3.13;;;2.20;;
68365;SDS011;55283;51.466;5.478;2023-05-10T06:04:18;2.60;;;2.30;;
68365;SDS011;55283;51.466;5.478;2023-05-10T06:06:44;3.58;;;2.20;;
68365;SDS011;55283;51.466;5.478;2023-05-10T06:09:09;3.13;;;2.10;;
68365;SDS011;55283;51.466;5.478;2023-05-10T06:11:35;3.95;;;2.30;;
68365;SDS011;55283;51.466;5.478;2023-05-10T06:14:02;3.45;;;2.40;;
68365;SDS011;55283;51.466;5.478;2023-05-10T06:16:29;4.13;;;2.25;;
68365;SDS011;55283;51.466;5.478;2023-05-10T06:18:55;4.60;;;2.37;;
68365;SDS011;55283;51.466;5.478;2023-05-10T06:21:20;11.07;;;7.20;;
68365;SDS011;55283;51.466;5.478;2023-05-10T06:23:46;13.20;;;8.57;;
68365;SDS011;55283;51.466;5.478;2023-05-10T06:26:11;15.00;;;8.70;;
68365;SDS011;55283;51.466;5.478;2023-05-10T06:28:37;12.97;;;10.07;;
68365;SDS011;55283;51.466;5.478;2023-05-10T06:31:05;13.57;;;8.82;;
68365;SDS011;55283;51.466;5.478;2023-05-10T06:33:32;17.13;;;10.65;;
68365;SDS011;55283;51.466;5.478;2023-05-10T06:35:57;18.07;;;10.70;;
68365;SDS011;55283;51.466;5.478;2023-05-10T06:38:23;15.55;;;10.80;;
68365;SDS011;55283;51.466;5.478;2023-05-10T06:40:48;16.83;;;10.50;;
68365;SDS011;55283;51.466;5.478;2023-05-10T06:43:14;18.87;;;11.80;;
68365;SDS011;55283;51.466;5.478;2023-05-10T06:45:39;16.85;;;11.88;;
68365;SDS011;55283;51.466;5.478;2023-05-10T06:48:06;17.37;;;11.03;;
68365;SDS011;55283;51.466;5.478;2023-05-10T06:50:31;16.92;;;11.98;;
68365;SDS011;55283;51.466;5.478;2023-05-10T06:52:57;16.93;;;11.27;;
68365;SDS011;55283;51.466;5.478;2023-05-10T06:55:22;15.43;;;11.63;;
68365;SDS011;55283;51.466;5.478;2023-05-10T06:57:48;17.63;;;12.17;;
68365;SDS011;55283;51.466;5.478;2023-05-10T07:00:14;17.07;;;12.33;;
68365;SDS011;55283;51.466;5.478;2023-05-10T07:02:39;15.70;;;11.07;;
68365;SDS011;55283;51.466;5.478;2023-05-10T07:05:05;16.80;;;11.93;;
68365;SDS011;55283;51.466;5.478;2023-05-10T07:07:31;17.90;;;11.85;;
68365;SDS011;55283;51.466;5.478;2023-05-10T07:09:56;18.13;;;12.43;;
68365;SDS011;55283;51.466;5.478;2023-05-10T07:12:22;19.58;;;11.85;;
68365;SDS011;55283;51.466;5.478;2023-05-10T07:14:48;16.33;;;11.40;;
68365;SDS011;55283;51.466;5.478;2023-05-10T07:17:14;17.37;;;11.43;;
68365;SDS011;55283;51.466;5.478;2023-05-10T07:19:40;15.98;;;11.70;;
68365;SDS011;55283;51.466;5.478;2023-05-10T07:22:05;15.37;;;11.20;;
68365;SDS011;55283;51.466;5.478;2023-05-10T07:24:31;16.47;;;11.40;;
68365;SDS011;55283;51.466;5.478;2023-05-10T07:26:57;15.90;;;11.20;;
68365;SDS011;55283;51.466;5.478;2023-05-10T07:29:22;16.63;;;10.63;;
68365;SDS011;55283;51.466;5.478;2023-05-10T07:31:48;16.90;;;12.00;;
68365;SDS011;55283;51.466;5.478;2023-05-10T07:34:13;14.60;;;10.40;;
68365;SDS011;55283;51.466;5.478;2023-05-10T07:36:38;16.58;;;10.73;;
68365;SDS011;55283;51.466;5.478;2023-05-10T07:39:04;17.30;;;10.43;;
68365;SDS011;55283;51.466;5.478;2023-05-10T07:41:30;17.42;;;10.00;;
68365;SDS011;55283;51.466;5.478;2023-05-10T07:43:55;13.90;;;9.97;;
68365;SDS011;55283;51.466;5.478;2023-05-10T07:46:21;14.40;;;9.13;;
68365;SDS011;55283;51.466;5.478;2023-05-10T07:48:46;16.40;;;9.77;;
68365;SDS011;55283;51.466;5.478;2023-05-10T07:51:11;12.30;;;8.47;;
68365;SDS011;55283;51.466;5.478;2023-05-10T07:53:37;15.07;;;8.57;;
68365;SDS011;55283;51.466;5.478;2023-05-10T07:58:52;10.07;;;6.70;;
68365;SDS011;55283;51.466;5.478;2023-05-10T08:01:19;9.27;;;7.03;;
68365;SDS011;55283;51.466;5.478;2023-05-10T08:03:44;10.50;;;6.53;;
68365;SDS011;55283;51.466;5.478;2023-05-10T08:06:10;9.43;;;6.80;;
68365;SDS011;55283;51.466;5.478;2023-05-10T08:08:36;7.97;;;5.73;;
68365;SDS011;55283;51.466;5.478;2023-05-10T08:11:01;9.90;;;6.30;;
68365;SDS011;55283;51.466;5.478;2023-05-10T08:13:27;10.00;;;5.97;;
68365;SDS011;55283;51.466;5.478;2023-05-10T08:15:52;7.47;;;5.47;;
68365;SDS011;55283;51.466;5.478;2023-05-10T08:18:18;9.13;;;5.30;;
68365;SDS011;55283;51.466;5.478;2023-05-10T08:20:44;8.80;;;4.97;;
68365;SDS011;55283;51.466;5.478;2023-05-10T08:23:09;8.33;;;4.80;;
68365;SDS011;55283;51.466;5.478;2023-05-10T08:25:35;8.30;;;4.70;;
68365;SDS011;55283;51.466;5.478;2023-05-10T08:28:00;6.33;;;4.43;;
68365;SDS011;55283;51.466;5.478;2023-05-10T08:30:25;6.13;;;4.20;;
68365;SDS011;55283;51.466;5.478;2023-05-10T08:32:51;6.05;;;4.00;;
68365;SDS011;55283;51.466;5.478;2023-05-10T08:35:16;5.73;;;3.80;;
68365;SDS011;55283;51.466;5.478;2023-05-10T08:37:42;6.53;;;4.10;;
68365;SDS011;55283;51.466;5.478;2023-05-10T08:40:07;5.13;;;3.43;;
68365;SDS011;55283;51.466;5.478;2023-05-10T08:42:36;5.75;;;3.65;;
68365;SDS011;55283;51.466;5.478;2023-05-10T08:45:05;5.63;;;3.60;;
68365;SDS011;55283;51.466;5.478;2023-05-10T08:47:32;7.73;;;3.93;;
68365;SDS011;55283;51.466;5.478;2023-05-10T08:50:00;5.07;;;3.40;;
68365;SDS011;55283;51.466;5.478;2023-05-10T08:52:28;4.78;;;3.50;;
68365;SDS011;55283;51.466;5.478;2023-05-10T08:54:55;5.77;;;3.30;;
68365;SDS011;55283;51.466;5.478;2023-05-10T08:57:21;6.03;;;3.50;;
68365;SDS011;55283;51.466;5.478;2023-05-10T08:59:47;6.28;;;3.65;;
68365;SDS011;55283;51.466;5.478;2023-05-10T09:02:12;6.17;;;4.30;;
68365;SDS011;55283;51.466;5.478;2023-05-10T09:04:38;6.23;;;4.00;;
68365;SDS011;55283;51.466;5.478;2023-05-10T09:07:04;6.47;;;3.75;;
68365;SDS011;55283;51.466;5.478;2023-05-10T09:09:31;6.85;;;3.55;;
68365;SDS011;55283;51.466;5.478;2023-05-10T09:11:56;6.23;;;3.73;;
68365;SDS011;55283;51.466;5.478;2023-05-10T09:14:23;7.07;;;3.33;;
68365;SDS011;55283;51.466;5.478;2023-05-10T09:16:49;5.47;;;3.57;;
68365;SDS011;55283;51.466;5.478;2023-05-10T09:19:15;7.47;;;3.95;;
68365;SDS011;55283;51.466;5.478;2023-05-10T09:21:41;5.17;;;3.50;;
68365;SDS011;55283;51.466;5.478;2023-05-10T09:24:07;5.05;;;3.50;;
68365;SDS011;55283;51.466;5.478;2023-05-10T09:26:33;4.97;;;3.40;;
68365;SDS011;55283;51.466;5.478;2023-05-10T09:29:00;5.50;;;2.97;;
68365;SDS011;55283;51.466;5.478;2023-05-10T09:34:20;5.18;;;3.35;;
68365;SDS011;55283;51.466;5.478;2023-05-10T09:36:54;5.53;;;3.50;;
68365;SDS011;55283;51.466;5.478;2023-05-10T09:39:21;5.72;;;3.60;;
68365;SDS011;55283;51.466;5.478;2023-05-10T09:41:55;6.38;;;3.10;;
68365;SDS011;55283;51.466;5.478;2023-05-10T09:44:21;5.17;;;3.27;;
68365;SDS011;55283;51.466;5.478;2023-05-10T09:46:50;5.88;;;3.33;;
68365;SDS011;55283;51.466;5.478;2023-05-10T09:49:17;5.80;;;3.63;;
68365;SDS011;55283;51.466;5.478;2023-05-10T09:51:43;6.07;;;3.63;;
68365;SDS011;55283;51.466;5.478;2023-05-10T09:54:13;5.23;;;3.50;;
68365;SDS011;55283;51.466;5.478;2023-05-10T09:56:40;6.35;;;3.53;;
68365;SDS011;55283;51.466;5.478;2023-05-10T09:59:06;5.70;;;3.87;;
68365;SDS011;55283;51.466;5.478;2023-05-10T10:01:33;5.93;;;3.60;;
68365;SDS011;55283;51.466;5.478;2023-05-10T10:04:02;5.97;;;3.58;;
68365;SDS011;55283;51.466;5.478;2023-05-10T10:06:29;6.33;;;4.30;;
68365;SDS011;55283;51.466;5.478;2023-05-10T10:08:54;6.95;;;3.92;;
68365;SDS011;55283;51.466;5.478;2023-05-10T10:11:21;6.25;;;4.03;;
68365;SDS011;55283;51.466;5.478;2023-05-10T10:13:48;5.57;;;4.00;;
68365;SDS011;55283;51.466;5.478;2023-05-10T10:16:14;7.07;;;3.40;;
68365;SDS011;55283;51.466;5.478;2023-05-10T10:18:39;5.57;;;3.27;;
68365;SDS011;55283;51.466;5.478;2023-05-10T10:21:06;5.28;;;2.90;;
68365;SDS011;55283;51.466;5.478;2023-05-10T10:23:33;11.73;;;5.55;;
68365;SDS011;55283;51.466;5.478;2023-05-10T10:25:59;37.70;;;14.15;;
68365;SDS011;55283;51.466;5.478;2023-05-10T10:28:32;42.40;;;14.13;;
68365;SDS011;55283;51.466;5.478;2023-05-10T10:31:26;49.72;;;18.05;;
68365;SDS011;55283;51.466;5.478;2023-05-10T10:33:59;68.85;;;23.13;;
68365;SDS011;55283;51.466;5.478;2023-05-10T10:36:28;75.43;;;24.13;;
68365;SDS011;55283;51.466;5.478;2023-05-10T10:41:32;69.05;;;23.90;;
68365;SDS011;55283;51.466;5.478;2023-05-10T10:52:14;47.47;;;17.40;;
68365;SDS011;55283;51.466;5.478;2023-05-10T10:57:54;58.08;;;19.90;;
68365;SDS011;55283;51.466;5.478;2023-05-10T11:00:26;59.38;;;20.00;;
68365;SDS011;55283;51.466;5.478;2023-05-10T11:03:14;58.93;;;18.77;;
68365;SDS011;55283;51.466;5.478;2023-05-10T11:08:46;55.03;;;18.40;;
68365;SDS011;55283;51.466;5.478;2023-05-10T11:11:13;52.77;;;18.10;;
68365;SDS011;55283;51.466;5.478;2023-05-10T11:13:43;53.83;;;18.88;;
68365;SDS011;55283;51.466;5.478;2023-05-10T11:16:17;47.00;;;18.13;;
68365;SDS011;55283;51.466;5.478;2023-05-10T11:19:03;52.00;;;18.35;;
68365;SDS011;55283;51.466;5.478;2023-05-10T11:21:32;51.43;;;17.63;;
68365;SDS011;55283;51.466;5.478;2023-05-10T11:23:59;54.55;;;18.13;;
68365;SDS011;55283;51.466;5.478;2023-05-10T11:26:30;49.70;;;17.42;;
68365;SDS011;55283;51.466;5.478;2023-05-10T11:28:57;45.83;;;17.03;;
68365;SDS011;55283;51.466;5.478;2023-05-10T11:31:25;47.90;;;15.63;;
68365;SDS011;55283;51.466;5.478;2023-05-10T11:33:52;52.55;;;17.17;;
68365;SDS011;55283;51.466;5.478;2023-05-10T11:36:20;42.00;;;15.90;;
68365;SDS011;55283;51.466;5.478;2023-05-10T11:38:47;41.78;;;16.02;;
68365;SDS011;55283;51.466;5.478;2023-05-10T11:41:14;40.90;;;15.35;;
68365;SDS011;55283;51.466;5.478;2023-05-10T11:43:42;38.55;;;14.48;;
68365;SDS011;55283;51.466;5.478;2023-05-10T11:46:11;41.00;;;14.53;;
68365;SDS011;55283;51.466;5.478;2023-05-10T11:48:40;42.30;;;15.48;;
68365;SDS011;55283;51.466;5.478;2023-05-10T11:51:07;38.83;;;14.32;;
68365;SDS011;55283;51.466;5.478;2023-05-10T11:53:33;38.33;;;14.37;;
68365;SDS011;55283;51.466;5.478;2023-05-10T11:56:05;34.92;;;13.98;;
68365;SDS011;55283;51.466;5.478;2023-05-10T11:58:31;35.77;;;13.97;;
68365;SDS011;55283;51.466;5.478;2023-05-10T12:01:01;36.67;;;13.65;;
68365;SDS011;55283;51.466;5.478;2023-05-10T12:03:27;34.75;;;13.57;;
68365;SDS011;55283;51.466;5.478;2023-05-10T12:05:57;35.58;;;12.73;;
68365;SDS011;55283;51.466;5.478;2023-05-10T12:08:24;33.83;;;13.53;;
68365;SDS011;55283;51.466;5.478;2023-05-10T12:10:51;31.60;;;13.50;;
68365;SDS011;55283;51.466;5.478;2023-05-10T12:13:18;35.58;;;14.05;;
68365;SDS011;55283;51.466;5.478;2023-05-10T12:15:45;33.67;;;13.60;;
68365;SDS011;55283;51.466;5.478;2023-05-10T12:18:11;30.67;;;12.38;;
68365;SDS011;55283;51.466;5.478;2023-05-10T12:20:38;29.38;;;12.93;;
68365;SDS011;55283;51.466;5.478;2023-05-10T12:23:04;27.90;;;11.90;;
68365;SDS011;55283;51.466;5.478;2023-05-10T12:25:31;33.67;;;13.30;;
68365;SDS011;55283;51.466;5.478;2023-05-10T12:27:59;32.00;;;12.50;;
68365;SDS011;55283;51.466;5.478;2023-05-10T12:30:28;31.10;;;13.27;;
68365;SDS011;55283;51.466;5.478;2023-05-10T12:32:59;31.70;;;12.50;;
68365;SDS011;55283;51.466;5.478;2023-05-10T12:35:32;29.77;;;12.13;;
68365;SDS011;55283;51.466;5.478;2023-05-10T12:37:59;29.08;;;11.77;;
68365;SDS011;55283;51.466;5.478;2023-05-10T12:40:24;30.17;;;12.60;;
68365;SDS011;55283;51.466;5.478;2023-05-10T12:42:50;31.17;;;12.33;;
68365;SDS011;55283;51.466;5.478;2023-05-10T12:45:17;27.08;;;11.90;;
68365;SDS011;55283;51.466;5.478;2023-05-10T12:47:43;30.60;;;12.30;;
68365;SDS011;55283;51.466;5.478;2023-05-10T12:50:08;24.93;;;11.13;;
68365;SDS011;55283;51.466;5.478;2023-05-10T12:52:34;25.13;;;11.70;;
68365;SDS011;55283;51.466;5.478;2023-05-10T12:54:59;27.25;;;11.75;;
68365;SDS011;55283;51.466;5.478;2023-05-10T12:57:25;24.30;;;11.23;;
68365;SDS011;55283;51.466;5.478;2023-05-10T12:59:52;27.23;;;12.07;;
68365;SDS011;55283;51.466;5.478;2023-05-10T13:02:17;24.50;;;10.90;;
68365;SDS011;55283;51.466;5.478;2023-05-10T13:04:43;26.48;;;11.25;;
68365;SDS011;55283;51.466;5.478;2023-05-10T13:07:10;26.90;;;11.47;;
68365;SDS011;55283;51.466;5.478;2023-05-10T13:09:35;27.08;;;11.60;;
68365;SDS011;55283;51.466;5.478;2023-05-10T13:12:01;24.93;;;10.87;;
68365;SDS011;55283;51.466;5.478;2023-05-10T13:14:27;24.77;;;11.77;;
68365;SDS011;55283;51.466;5.478;2023-05-10T13:16:52;24.63;;;10.73;;
68365;SDS011;55283;51.466;5.478;2023-05-10T13:19:18;22.00;;;11.02;;
68365;SDS011;55283;51.466;5.478;2023-05-10T13:21:44;24.07;;;10.83;;
68365;SDS011;55283;51.466;5.478;2023-05-10T13:24:10;22.90;;;10.82;;
68365;SDS011;55283;51.466;5.478;2023-05-10T13:26:38;24.17;;;11.05;;
68365;SDS011;55283;51.466;5.478;2023-05-10T13:29:04;23.83;;;10.57;;
68365;SDS011;55283;51.466;5.478;2023-05-10T13:31:30;23.55;;;10.65;;
68365;SDS011;55283;51.466;5.478;2023-05-10T13:33:55;25.97;;;10.53;;
68365;SDS011;55283;51.466;5.478;2023-05-10T13:36:20;23.10;;;10.33;;
68365;SDS011;55283;51.466;5.478;2023-05-10T13:38:46;23.17;;;10.50;;
68365;SDS011;55283;51.466;5.478;2023-05-10T13:41:11;21.70;;;9.93;;
68365;SDS011;55283;51.466;5.478;2023-05-10T13:43:37;23.60;;;11.05;;
68365;SDS011;55283;51.466;5.478;2023-05-10T13:46:02;24.33;;;10.60;;
68365;SDS011;55283;51.466;5.478;2023-05-10T13:48:27;22.97;;;10.07;;
68365;SDS011;55283;51.466;5.478;2023-05-10T13:50:53;22.17;;;10.10;;
68365;SDS011;55283;51.466;5.478;2023-05-10T13:53:19;25.42;;;10.02;;
68365;SDS011;55283;51.466;5.478;2023-05-10T13:55:44;22.20;;;9.80;;
68365;SDS011;55283;51.466;5.478;2023-05-10T13:58:09;22.57;;;10.37;;
68365;SDS011;55283;51.466;5.478;2023-05-10T14:00:35;21.45;;;9.60;;
68365;SDS011;55283;51.466;5.478;2023-05-10T14:03:01;19.77;;;10.07;;
68365;SDS011;55283;51.466;5.478;2023-05-10T14:05:26;25.20;;;9.70;;
68365;SDS011;55283;51.466;5.478;2023-05-10T14:07:51;20.13;;;9.98;;
68365;SDS011;55283;51.466;5.478;2023-05-10T14:10:17;23.03;;;9.43;;
68365;SDS011;55283;51.466;5.478;2023-05-10T14:12:42;22.03;;;10.00;;
68365;SDS011;55283;51.466;5.478;2023-05-10T14:15:08;21.27;;;9.77;;
68365;SDS011;55283;51.466;5.478;2023-05-10T14:17:36;20.10;;;9.50;;
68365;SDS011;55283;51.466;5.478;2023-05-10T14:20:01;21.93;;;10.00;;
68365;SDS011;55283;51.466;5.478;2023-05-10T14:22:27;20.00;;;9.32;;
68365;SDS011;55283;51.466;5.478;2023-05-10T14:24:52;20.47;;;9.33;;
68365;SDS011;55283;51.466;5.478;2023-05-10T14:27:18;18.50;;;8.97;;
68365;SDS011;55283;51.466;5.478;2023-05-10T14:29:44;20.80;;;9.63;;
68365;SDS011;55283;51.466;5.478;2023-05-10T14:32:09;19.03;;;8.67;;
68365;SDS011;55283;51.466;5.478;2023-05-10T14:34:35;19.75;;;8.88;;
68365;SDS011;55283;51.466;5.478;2023-05-10T14:37:00;16.40;;;8.63;;
68365;SDS011;55283;51.466;5.478;2023-05-10T14:39:26;19.30;;;9.23;;
68365;SDS011;55283;51.466;5.478;2023-05-10T14:41:54;17.83;;;9.20;;
68365;SDS011;55283;51.466;5.478;2023-05-10T14:44:20;19.27;;;9.27;;
68365;SDS011;55283;51.466;5.478;2023-05-10T14:46:45;20.02;;;9.35;;
68365;SDS011;55283;51.466;5.478;2023-05-10T14:49:11;21.70;;;8.90;;
68365;SDS011;55283;51.466;5.478;2023-05-10T14:51:36;17.37;;;8.73;;
68365;SDS011;55283;51.466;5.478;2023-05-10T14:54:02;18.92;;;9.05;;
68365;SDS011;55283;51.466;5.478;2023-05-10T14:56:27;17.83;;;8.23;;
68365;SDS011;55283;51.466;5.478;2023-05-10T14:58:53;17.70;;;8.73;;
68365;SDS011;55283;51.466;5.478;2023-05-10T15:01:18;17.48;;;8.27;;
68365;SDS011;55283;51.466;5.478;2023-05-10T15:03:44;16.80;;;8.50;;
68365;SDS011;55283;51.466;5.478;2023-05-10T15:06:09;17.43;;;8.60;;
68365;SDS011;55283;51.466;5.478;2023-05-10T15:08:35;17.00;;;8.90;;
68365;SDS011;55283;51.466;5.478;2023-05-10T15:11:01;20.13;;;8.90;;
68365;SDS011;55283;51.466;5.478;2023-05-10T15:13:26;17.95;;;8.68;;
68365;SDS011;55283;51.466;5.478;2023-05-10T15:15:51;17.33;;;8.43;;
68365;SDS011;55283;51.466;5.478;2023-05-10T15:18:17;16.87;;;8.17;;